createdAt,value
2022-07-25T00:02:03.535Z,16.98
2022-07-25T00:04:31.409Z,17.50
2022-07-25T00:06:59.590Z,16.40
2022-07-25T00:09:27.359Z,17.48
2022-07-25T00:11:55.087Z,19.23
2022-07-25T00:14:22.827Z,17.08
2022-07-25T00:16:52.121Z,17.65
2022-07-25T00:19:19.944Z,17.83
2022-07-25T00:21:48.774Z,18.02
2022-07-25T00:24:16.496Z,17.20
2022-07-25T00:26:44.294Z,17.30
2022-07-25T00:29:12.001Z,19.05
2022-07-25T00:31:39.727Z,17.45
2022-07-25T00:34:09.366Z,18.15
2022-07-25T00:36:37.624Z,18.65
2022-07-25T00:39:05.696Z,17.08
2022-07-25T00:41:33.451Z,17.63
2022-07-25T00:44:01.174Z,18.00
2022-07-25T00:46:28.921Z,18.65
2022-07-25T00:48:56.718Z,18.75
2022-07-25T00:51:26.560Z,17.92
2022-07-25T00:53:54.303Z,17.20
2022-07-25T00:56:22.065Z,20.08
2022-07-25T00:58:49.788Z,17.98
2022-07-25T01:01:17.628Z,18.02
2022-07-25T01:03:45.447Z,18.27
2022-07-25T01:06:13.425Z,17.92
2022-07-25T01:08:43.046Z,18.27
2022-07-25T01:11:11.915Z,18.45
2022-07-25T01:13:39.774Z,17.92
2022-07-25T01:16:08.086Z,18.85
2022-07-25T01:18:35.825Z,18.67
2022-07-25T01:21:05.715Z,18.55
2022-07-25T01:23:33.492Z,20.00
2022-07-25T01:26:01.213Z,19.40
2022-07-25T01:28:29.159Z,18.65
2022-07-25T01:30:56.963Z,18.88
2022-07-25T01:33:24.697Z,19.42
2022-07-25T01:35:53.130Z,17.48
2022-07-25T01:38:22.179Z,18.48
2022-07-25T01:40:49.928Z,17.90
2022-07-25T01:43:17.685Z,18.00
2022-07-25T01:45:45.504Z,18.48
2022-07-25T01:48:13.283Z,18.55
2022-07-25T01:50:41.048Z,16.95
2022-07-25T01:53:08.754Z,18.48
2022-07-25T01:55:37.846Z,17.30
2022-07-25T01:58:06.782Z,18.45
2022-07-25T02:00:35.647Z,18.35
2022-07-25T02:03:20.587Z,17.67
2022-07-25T02:05:48.493Z,18.20
2022-07-25T02:08:16.215Z,18.27
2022-07-25T02:10:46.385Z,19.88
2022-07-25T02:13:14.288Z,20.33
2022-07-25T02:15:41.984Z,18.95
2022-07-25T02:18:09.738Z,20.98
2022-07-25T02:20:37.505Z,18.92
2022-07-25T02:23:05.957Z,17.00
2022-07-25T02:25:34.316Z,17.65
2022-07-25T02:28:03.725Z,19.38
2022-07-25T02:30:31.591Z,18.02
2022-07-25T02:33:00.119Z,18.73
2022-07-25T02:35:28.161Z,18.02
2022-07-25T02:37:55.942Z,17.88
2022-07-25T02:40:23.719Z,20.08
2022-07-25T02:42:51.421Z,18.67
2022-07-25T02:45:20.514Z,19.67
2022-07-25T02:47:48.257Z,19.55
2022-07-25T02:50:16.070Z,19.75
2022-07-25T02:52:43.784Z,18.40
2022-07-25T02:55:12.444Z,19.60
2022-07-25T02:57:40.246Z,19.60
2022-07-25T03:00:09.677Z,18.85
2022-07-25T03:02:38.965Z,19.17
2022-07-25T03:05:08.325Z,20.75
2022-07-25T03:07:36.149Z,18.65
2022-07-25T03:10:10.822Z,20.80
2022-07-25T03:12:39.551Z,19.15
2022-07-25T03:15:08.434Z,20.08
2022-07-25T03:17:36.402Z,19.13
2022-07-25T03:20:06.945Z,19.15
2022-07-25T03:22:35.078Z,19.00
2022-07-25T03:25:03.152Z,19.35
2022-07-25T03:27:30.918Z,19.90
2022-07-25T03:29:58.666Z,20.30
2022-07-25T03:32:26.407Z,18.58
2022-07-25T03:34:54.167Z,19.92
2022-07-25T03:37:23.244Z,22.30
2022-07-25T03:39:50.955Z,20.85
2022-07-25T03:42:22.358Z,19.52
2022-07-25T03:44:52.951Z,20.20
2022-07-25T03:47:21.027Z,21.88
2022-07-25T03:49:48.757Z,21.77
2022-07-25T03:52:16.446Z,19.88
2022-07-25T03:54:45.546Z,20.67
2022-07-25T03:57:13.382Z,20.58
2022-07-25T03:59:41.089Z,20.10
2022-07-25T04:02:08.842Z,21.25
2022-07-25T04:04:36.654Z,20.75
2022-07-25T04:07:04.482Z,21.17
2022-07-25T04:09:33.415Z,19.65
2022-07-25T04:12:02.938Z,21.42
2022-07-25T04:14:30.653Z,19.75
2022-07-25T04:16:58.496Z,19.95
2022-07-25T04:19:28.847Z,20.23
2022-07-25T04:21:56.986Z,20.08
2022-07-25T04:24:24.832Z,20.27
2022-07-25T04:26:52.570Z,19.95
2022-07-25T04:29:21.683Z,22.05
2022-07-25T04:31:49.499Z,19.75
2022-07-25T04:34:17.381Z,21.38
2022-07-25T04:36:45.139Z,21.45
2022-07-25T04:39:13.174Z,20.77
2022-07-25T04:41:40.941Z,21.27
2022-07-25T04:44:09.384Z,20.02
2022-07-25T04:46:38.766Z,20.73
2022-07-25T04:49:06.553Z,23.17
2022-07-25T04:51:34.412Z,21.10
2022-07-25T04:54:02.345Z,19.92
2022-07-25T04:56:30.157Z,20.08
2022-07-25T04:59:03.156Z,19.90
2022-07-25T05:01:34.040Z,19.40
2022-07-25T05:04:03.446Z,18.50
2022-07-25T05:06:31.387Z,18.83
2022-07-25T05:08:59.073Z,17.77
2022-07-25T05:11:26.816Z,19.08
2022-07-25T05:13:54.546Z,19.45
2022-07-25T05:16:22.325Z,20.23
2022-07-25T05:18:50.228Z,18.83
2022-07-25T05:21:19.448Z,18.17
2022-07-25T05:23:47.201Z,18.70
2022-07-25T05:26:15.022Z,20.63
2022-07-25T05:28:42.718Z,20.73
2022-07-25T05:31:10.560Z,19.63
2022-07-25T05:33:38.308Z,20.10
2022-07-25T05:36:06.525Z,19.80
2022-07-25T05:38:35.742Z,19.27
2022-07-25T05:41:03.567Z,20.65
2022-07-25T05:43:31.329Z,19.42
2022-07-25T05:46:01.973Z,18.45
2022-07-25T05:48:29.841Z,17.70
2022-07-25T05:50:59.185Z,17.77
2022-07-25T05:53:26.996Z,16.77
2022-07-25T05:55:56.163Z,17.83
2022-07-25T05:58:29.430Z,17.40
2022-07-25T06:00:58.069Z,17.65
2022-07-25T06:03:26.006Z,19.83
2022-07-25T06:05:53.800Z,17.48
2022-07-25T06:08:22.545Z,16.92
2022-07-25T06:10:50.324Z,16.58
2022-07-25T06:13:20.227Z,16.45
2022-07-25T06:15:48.653Z,16.48
2022-07-25T06:18:16.571Z,15.60
2022-07-25T06:20:44.341Z,16.13
2022-07-25T06:23:12.306Z,15.57
2022-07-25T06:25:40.092Z,15.25
2022-07-25T06:28:07.946Z,16.73
2022-07-25T06:30:39.796Z,15.32
2022-07-25T06:33:07.529Z,14.68
2022-07-25T06:35:35.275Z,15.35
2022-07-25T06:38:03.285Z,16.63
2022-07-25T06:40:31.055Z,15.32
2022-07-25T06:42:59.733Z,14.85
2022-07-25T06:45:27.546Z,14.88
2022-07-25T06:47:56.612Z,15.57
2022-07-25T06:50:24.420Z,19.48
2022-07-25T06:52:54.396Z,14.00
2022-07-25T06:55:22.184Z,13.68
2022-07-25T06:57:49.883Z,15.68
2022-07-25T07:00:18.182Z,14.75
2022-07-25T07:02:53.557Z,15.15
2022-07-25T07:07:50.717Z,17.88
2022-07-25T07:10:19.333Z,14.70
2022-07-25T07:12:47.351Z,14.90
2022-07-25T07:15:15.601Z,14.55
2022-07-25T07:17:46.132Z,15.10
2022-07-25T07:20:13.916Z,14.98
2022-07-25T07:22:47.499Z,14.48
2022-07-25T07:25:15.773Z,15.13
2022-07-25T07:27:44.279Z,17.58
2022-07-25T07:30:14.722Z,15.48
2022-07-25T07:32:42.839Z,15.68
2022-07-25T07:35:11.286Z,14.90
2022-07-25T07:37:43.496Z,15.57
2022-07-25T07:40:16.942Z,13.90
2022-07-25T07:42:47.254Z,14.75
2022-07-25T07:45:16.771Z,14.52
2022-07-25T07:47:46.831Z,14.50
2022-07-25T07:50:16.220Z,13.32
2022-07-25T07:52:44.745Z,15.48
2022-07-25T07:55:31.824Z,14.35
2022-07-25T07:58:00.590Z,13.75
2022-07-25T08:00:30.969Z,14.88
2022-07-25T08:03:00.475Z,14.50
2022-07-25T08:05:30.993Z,15.25
2022-07-25T08:07:59.532Z,13.40
2022-07-25T08:10:30.407Z,12.77
2022-07-25T08:12:58.895Z,13.75
2022-07-25T08:15:27.144Z,13.73
2022-07-25T08:17:54.932Z,15.25
2022-07-25T08:20:39.490Z,15.85
2022-07-25T08:23:08.454Z,12.60
2022-07-25T08:25:38.147Z,12.63
2022-07-25T08:28:07.337Z,13.15
2022-07-25T08:30:36.048Z,13.63
2022-07-25T08:33:06.577Z,12.65
2022-07-25T08:35:35.872Z,13.30
2022-07-25T08:38:04.871Z,12.25
2022-07-25T08:40:34.401Z,11.77
2022-07-25T08:43:03.625Z,11.77
2022-07-25T08:45:31.615Z,13.20
2022-07-25T08:47:59.356Z,12.30
2022-07-25T08:50:29.842Z,12.27
2022-07-25T08:53:29.917Z,12.80
2022-07-25T08:55:46.683Z,12.40
2022-07-25T08:58:17.502Z,13.77
2022-07-25T09:00:46.049Z,12.73
2022-07-25T09:03:14.228Z,14.90
2022-07-25T09:05:42.479Z,12.68
2022-07-25T09:08:11.804Z,11.82
2022-07-25T09:10:42.358Z,13.15
2022-07-25T09:13:14.163Z,11.73
2022-07-25T09:15:46.772Z,12.35
2022-07-25T09:18:17.018Z,13.35
2022-07-25T09:20:49.213Z,11.60
2022-07-25T09:23:30.151Z,12.07
2022-07-25T09:26:03.545Z,11.63
2022-07-25T09:28:31.489Z,11.90
2022-07-25T09:31:02.070Z,11.10
2022-07-25T09:33:30.643Z,11.82
2022-07-25T09:35:58.412Z,10.88
2022-07-25T09:38:26.289Z,10.15
2022-07-25T09:40:59.783Z,14.18
2022-07-25T09:43:37.482Z,10.40
2022-07-25T09:46:07.748Z,9.18
2022-07-25T09:48:36.146Z,9.10
2022-07-25T09:51:04.651Z,9.80
2022-07-25T09:53:32.640Z,10.00
2022-07-25T09:56:00.975Z,9.27
2022-07-25T09:58:29.993Z,10.20
2022-07-25T10:01:04.308Z,9.10
2022-07-25T10:03:51.693Z,9.67
2022-07-25T10:06:23.214Z,9.13
2022-07-25T10:08:52.038Z,10.65
2022-07-25T10:11:21.269Z,9.57
2022-07-25T10:13:49.601Z,9.30
2022-07-25T10:16:19.388Z,12.48
2022-07-25T10:18:53.364Z,9.68
2022-07-25T10:21:26.764Z,8.70
2022-07-25T10:24:04.170Z,8.45
2022-07-25T10:26:33.416Z,9.82
2022-07-25T10:29:02.115Z,9.07
2022-07-25T10:31:37.042Z,8.52
2022-07-25T10:34:08.313Z,8.63
2022-07-25T10:36:44.802Z,8.70
2022-07-25T10:39:15.259Z,8.77
2022-07-25T10:41:45.279Z,12.75
2022-07-25T10:44:14.744Z,8.43
2022-07-25T10:46:44.562Z,8.32
2022-07-25T10:49:23.673Z,9.20
2022-07-25T10:51:58.758Z,8.37
2022-07-25T10:54:27.037Z,7.93
2022-07-25T10:56:57.471Z,7.53
2022-07-25T10:59:30.963Z,8.27
2022-07-25T11:01:59.205Z,7.43
2022-07-25T11:04:28.805Z,7.00
2022-07-25T11:06:56.584Z,6.78
2022-07-25T11:09:27.758Z,6.65
2022-07-25T11:11:57.810Z,6.88
2022-07-25T11:14:31.218Z,6.50
2022-07-25T11:16:59.477Z,6.50
2022-07-25T11:19:30.080Z,6.45
2022-07-25T11:21:59.751Z,6.05
2022-07-25T11:24:35.898Z,6.10
2022-07-25T11:27:09.760Z,7.82
2022-07-25T11:29:40.695Z,6.25
2022-07-25T11:32:10.539Z,8.68
2022-07-25T11:34:42.643Z,5.82
2022-07-25T11:37:12.525Z,6.28
2022-07-25T11:39:43.992Z,6.05
2022-07-25T11:42:13.493Z,7.93
2022-07-25T11:44:47.615Z,6.07
2022-07-25T11:47:27.706Z,5.60
2022-07-25T11:49:59.029Z,15.00
2022-07-25T11:52:31.069Z,5.53
2022-07-25T11:55:00.584Z,8.65
2022-07-25T11:57:30.694Z,6.40
2022-07-25T12:00:00.284Z,6.05
2022-07-25T12:02:31.112Z,5.32
2022-07-25T12:05:02.048Z,5.78
2022-07-25T12:07:38.228Z,6.00
2022-07-25T12:10:07.333Z,6.03
2022-07-25T12:12:50.160Z,6.93
2022-07-25T12:15:20.103Z,5.85
2022-07-25T12:17:48.621Z,5.85
2022-07-25T12:20:19.489Z,5.63
2022-07-25T12:22:47.556Z,8.65
2022-07-25T12:25:15.978Z,5.85
2022-07-25T12:27:44.439Z,6.10
2022-07-25T12:30:13.869Z,7.30
2022-07-25T12:32:42.820Z,6.35
2022-07-25T12:35:13.309Z,6.30
2022-07-25T12:37:43.647Z,6.15
2022-07-25T12:40:12.778Z,7.68
2022-07-25T12:42:40.509Z,28.13
2022-07-25T12:45:09.353Z,6.63
2022-07-25T12:47:37.555Z,8.43
2022-07-25T12:50:06.979Z,7.32
2022-07-25T12:52:35.107Z,6.55
2022-07-25T12:55:04.578Z,6.80
2022-07-25T12:57:32.586Z,6.88
2022-07-25T13:00:00.253Z,6.60
2022-07-25T13:02:28.042Z,7.22
2022-07-25T13:04:55.803Z,6.72
2022-07-25T13:07:23.600Z,6.63
2022-07-25T13:09:51.356Z,7.32
2022-07-25T13:12:20.646Z,6.78
2022-07-25T13:14:48.975Z,8.23
2022-07-25T13:17:16.811Z,11.40
2022-07-25T13:19:44.648Z,6.43
2022-07-25T13:22:12.693Z,7.38
2022-07-25T13:24:40.445Z,7.20
2022-07-25T13:27:08.572Z,8.02
2022-07-25T13:29:37.719Z,7.13
2022-07-25T13:32:06.461Z,8.57
2022-07-25T13:34:34.264Z,6.78
2022-07-25T13:37:01.973Z,9.30
2022-07-25T13:39:29.710Z,6.88
2022-07-25T13:41:57.569Z,7.20
2022-07-25T13:44:25.301Z,7.70
2022-07-25T13:46:54.534Z,7.57
2022-07-25T13:49:22.423Z,7.25
2022-07-25T13:51:50.224Z,8.05
2022-07-25T13:54:17.978Z,7.40
2022-07-25T13:56:45.848Z,6.15
2022-07-25T13:59:20.400Z,6.47
2022-07-25T14:01:49.007Z,6.18
2022-07-25T14:04:18.407Z,6.30
2022-07-25T14:06:46.326Z,7.15
2022-07-25T14:09:14.043Z,6.10
2022-07-25T14:11:41.838Z,6.57
2022-07-25T14:14:09.524Z,6.18
2022-07-25T14:16:37.235Z,7.88
2022-07-25T14:19:05.496Z,5.68
2022-07-25T14:21:34.846Z,5.70
2022-07-25T14:24:02.587Z,5.65
2022-07-25T14:26:31.045Z,6.03
2022-07-25T14:28:58.892Z,8.10
2022-07-25T14:31:27.141Z,5.85
2022-07-25T14:33:55.086Z,6.03
2022-07-25T14:36:22.847Z,6.70
2022-07-25T14:38:52.083Z,5.72
2022-07-25T14:41:20.356Z,7.20
2022-07-25T14:43:48.197Z,6.90
2022-07-25T14:46:16.236Z,6.10
2022-07-25T14:48:44.156Z,7.13
2022-07-25T14:51:11.975Z,5.50
2022-07-25T14:53:39.845Z,5.78
2022-07-25T14:56:09.261Z,5.63
2022-07-25T14:58:38.178Z,5.90
2022-07-25T15:01:07.011Z,11.95
2022-07-25T15:03:34.843Z,5.60
2022-07-25T15:06:03.086Z,5.93
2022-07-25T15:08:30.897Z,5.68
2022-07-25T15:10:58.636Z,7.25
2022-07-25T15:13:31.493Z,5.50
2022-07-25T15:16:00.027Z,5.95
2022-07-25T15:18:27.837Z,6.25
2022-07-25T15:20:55.632Z,10.02
2022-07-25T15:23:24.986Z,5.80
2022-07-25T15:26:02.221Z,5.55
2022-07-25T15:28:33.467Z,5.90
2022-07-25T15:31:01.688Z,6.05
2022-07-25T15:33:29.552Z,6.60
2022-07-25T15:35:57.984Z,5.53
2022-07-25T15:38:25.836Z,7.40
2022-07-25T15:40:53.561Z,6.10
2022-07-25T15:43:21.308Z,5.50
2022-07-25T15:45:52.680Z,17.30
2022-07-25T15:48:20.409Z,5.97
2022-07-25T15:50:51.590Z,6.47
2022-07-25T15:53:21.077Z,5.57
2022-07-25T15:55:49.281Z,6.15
2022-07-25T15:58:17.223Z,5.85
2022-07-25T16:00:45.143Z,4.00
2022-07-25T16:03:14.830Z,5.07
2022-07-25T16:05:44.595Z,4.32
2022-07-25T16:08:12.406Z,6.32
2022-07-25T16:10:40.123Z,5.00
2022-07-25T16:13:07.863Z,4.70
2022-07-25T16:15:35.976Z,5.60
2022-07-25T16:18:03.760Z,7.38
2022-07-25T16:20:33.847Z,7.07
2022-07-25T16:23:02.070Z,5.82
2022-07-25T16:25:30.783Z,5.38
2022-07-25T16:28:00.124Z,7.13
2022-07-25T16:30:28.218Z,8.52
2022-07-25T16:32:56.185Z,4.63
2022-07-25T16:35:24.199Z,5.25
2022-07-25T16:37:53.372Z,5.10
2022-07-25T16:40:21.394Z,4.28
2022-07-25T16:42:50.488Z,4.90
2022-07-25T16:45:18.197Z,4.70
2022-07-25T16:47:45.925Z,4.30
2022-07-25T16:50:13.656Z,4.43
2022-07-25T16:52:41.388Z,6.40
2022-07-25T16:55:10.971Z,6.80
2022-07-25T16:57:39.260Z,5.57
2022-07-25T17:00:09.663Z,7.45
2022-07-25T17:02:37.538Z,5.47
2022-07-25T17:05:06.182Z,9.02
2022-07-25T17:07:34.093Z,6.75
2022-07-25T17:10:01.852Z,5.47
2022-07-25T17:12:33.637Z,6.63
2022-07-25T17:15:01.496Z,5.90
2022-07-25T17:17:29.320Z,5.82
2022-07-25T17:20:00.100Z,7.50
2022-07-25T17:22:28.095Z,6.88
2022-07-25T17:24:55.888Z,10.40
2022-07-25T17:27:24.067Z,7.13
2022-07-25T17:29:53.228Z,8.02
2022-07-25T17:32:23.057Z,7.38
2022-07-25T17:34:54.383Z,11.63
2022-07-25T17:37:22.801Z,7.97
2022-07-25T17:39:50.840Z,8.10
2022-07-25T17:42:22.268Z,7.97
2022-07-25T17:44:50.215Z,7.70
2022-07-25T17:47:20.008Z,7.32
2022-07-25T17:49:47.748Z,8.38
2022-07-25T17:52:15.978Z,10.57
2022-07-25T17:54:43.788Z,12.57
2022-07-25T17:57:11.934Z,8.02
2022-07-25T17:59:39.910Z,8.57
2022-07-25T18:02:07.737Z,10.63
2022-07-25T18:04:37.978Z,7.75
2022-07-25T18:07:05.814Z,8.95
2022-07-25T18:09:33.754Z,9.15
2022-07-25T18:12:01.739Z,7.63
2022-07-25T18:14:30.140Z,10.73
2022-07-25T18:16:58.482Z,9.15
2022-07-25T18:19:26.456Z,8.60
2022-07-25T18:21:55.595Z,9.48
2022-07-25T18:24:28.837Z,9.60
2022-07-25T18:26:57.110Z,10.10
2022-07-25T18:29:24.984Z,8.13
2022-07-25T18:31:52.765Z,8.20
2022-07-25T18:34:20.499Z,10.32
2022-07-25T18:36:48.825Z,11.68
2022-07-25T18:39:18.021Z,12.48
2022-07-25T18:41:45.777Z,8.82
2022-07-25T18:44:13.592Z,9.68
2022-07-25T18:46:43.467Z,9.35
2022-07-25T18:49:12.004Z,9.20
2022-07-25T18:51:40.212Z,11.32
2022-07-25T18:54:08.696Z,11.80
2022-07-25T18:56:38.331Z,12.85
2022-07-25T18:59:07.005Z,14.82
2022-07-25T19:01:35.760Z,7.88
2022-07-25T19:04:03.682Z,7.85
2022-07-25T19:06:31.595Z,8.35
2022-07-25T19:08:59.316Z,9.15
2022-07-25T19:11:27.580Z,9.65
2022-07-25T19:13:57.524Z,19.15
2022-07-25T19:16:25.481Z,9.20
2022-07-25T19:18:53.617Z,24.38
2022-07-25T19:21:21.457Z,8.90
2022-07-25T19:23:51.121Z,10.07
2022-07-25T19:26:19.821Z,11.85
2022-07-25T19:28:48.039Z,9.68
2022-07-25T19:31:17.207Z,9.30
2022-07-25T19:33:46.121Z,10.98
2022-07-25T19:36:14.645Z,8.77
2022-07-25T19:38:42.612Z,15.48
2022-07-25T19:41:11.012Z,11.75
2022-07-25T19:43:38.783Z,12.45
2022-07-25T19:46:06.747Z,10.05
2022-07-25T19:48:36.114Z,8.90
2022-07-25T19:51:03.920Z,9.27
2022-07-25T19:53:34.277Z,10.55
2022-07-25T19:56:02.326Z,8.63
2022-07-25T19:58:33.073Z,9.10
2022-07-25T20:01:03.472Z,9.25
2022-07-25T20:03:31.513Z,10.90
2022-07-25T20:06:04.621Z,9.07
2022-07-25T20:08:35.529Z,10.80
2022-07-25T20:11:03.436Z,8.88
2022-07-25T20:13:31.246Z,10.25
2022-07-25T20:15:59.851Z,10.52
2022-07-25T20:18:27.628Z,9.27
2022-07-25T20:20:55.454Z,9.68
2022-07-25T20:23:26.623Z,10.90
2022-07-25T20:25:56.894Z,9.27
2022-07-25T20:28:27.806Z,10.05
2022-07-25T20:30:56.296Z,9.48
2022-07-25T20:33:27.040Z,15.05
2022-07-25T20:35:55.706Z,10.95
2022-07-25T20:38:28.298Z,16.50
2022-07-25T20:40:56.491Z,13.85
2022-07-25T20:43:24.979Z,12.75
2022-07-25T20:45:53.011Z,11.70
2022-07-25T20:48:20.758Z,12.77
2022-07-25T20:50:49.682Z,12.52
2022-07-25T20:53:17.483Z,15.10
2022-07-25T20:55:46.633Z,13.32
2022-07-25T20:58:14.362Z,11.30
2022-07-25T21:00:42.407Z,11.90
2022-07-25T21:03:10.313Z,16.42
2022-07-25T21:05:39.372Z,10.75
2022-07-25T21:08:07.952Z,13.60
2022-07-25T21:10:35.698Z,16.58
2022-07-25T21:13:05.052Z,11.95
2022-07-25T21:15:32.890Z,19.30
2022-07-25T21:18:00.745Z,12.85
2022-07-25T21:20:28.599Z,11.85
2022-07-25T21:22:56.377Z,12.30
2022-07-25T21:25:24.086Z,13.88
2022-07-25T21:27:51.891Z,17.77
2022-07-25T21:30:20.988Z,16.13
2022-07-25T21:32:48.937Z,13.48
2022-07-25T21:35:18.080Z,11.30
2022-07-25T21:37:45.892Z,12.15
2022-07-25T21:40:13.800Z,10.93
2022-07-25T21:42:42.425Z,15.13
2022-07-25T21:45:10.902Z,15.80
2022-07-25T21:47:40.026Z,14.40
2022-07-25T21:50:26.395Z,11.68
2022-07-25T21:52:54.832Z,16.58
2022-07-25T21:55:22.901Z,16.90
2022-07-25T21:57:51.892Z,12.70
2022-07-25T22:00:21.166Z,13.50
2022-07-25T22:02:50.518Z,12.00
2022-07-25T22:05:19.353Z,14.75
2022-07-25T22:07:48.272Z,13.75
2022-07-25T22:10:17.612Z,12.20
2022-07-25T22:12:45.365Z,15.98
2022-07-25T22:15:14.047Z,12.23
2022-07-25T22:17:49.356Z,15.45
2022-07-25T22:20:20.367Z,16.45
2022-07-25T22:22:48.501Z,16.13
2022-07-25T22:25:16.699Z,11.95
2022-07-25T22:27:44.572Z,14.30
2022-07-25T22:30:18.522Z,15.10
2022-07-25T22:32:47.610Z,16.80
2022-07-25T22:35:15.772Z,11.85
2022-07-25T22:37:45.161Z,14.73
2022-07-25T22:40:14.759Z,14.48
2022-07-25T22:42:42.541Z,17.60
2022-07-25T22:45:11.568Z,16.13
2022-07-25T22:47:39.563Z,11.48
2022-07-25T22:50:08.915Z,14.43
2022-07-25T22:52:36.659Z,11.02
2022-07-25T22:55:06.584Z,12.13
2022-07-25T22:57:37.276Z,14.38
